Terminal Aerodrome Forecast
Issued by NWS

Home | Current Version | Previous Version | Text Only | Print | Product List | Glossary On
Versions: 1 2 3 4 5 6 7 8 9 10 11 12 13 14 15 16 17 18 19 20 21 22 23 24
967
FTUS43 KILX 291339 AAA
TAFBMI
TAF AMD
KBMI 291339Z 2914/3012 08014G22KT P6SM OVC006
     FM291600 08014G22KT P6SM VCSH OVC015
     FM300000 08016G24KT P6SM OVC025
     FM300400 08018G26KT 6SM BR VCSH OVC020
     FM300900 10018G26KT 5SM -SHRA VCTS OVC015CB=

USA.gov is the U.S. government's official web portal to all federal, state and local government web resources and services.